Riverton, WY

11:22 AM MDT on July 29, 2014 (GMT -0600)
Riverton Regional (KRIW) Elev 5525 ft | 43.06 °N, 108.46 °W | Change Station

Current weather conditions updated 29 minutes ago

Light Rain
Light Rain
60 °F
Feels Like 60 °F
N
9
Wind Variable Wind from ENE

Today is forecast to be Much Cooler than yesterday. Thunderstorms.

Today
High -- | Low -- °F
--% Chance of Precip.
Yesterday
High -- | Low -- °F
Precip. -- in
6:01 AM 8:38 PM
Waxing Crescent, 7% visible
Pressure 30.18 in
Visibility 9.0 miles
Clouds Few 2000 ft
Mostly Cloudy 3300 ft
Overcast 8000 ft
Dew Point 58 °F
Humidity 93%
Rainfall 0.06 in
Snow Depth Not available.
UV 3 out of 12
Pollen 3.70 out of 12
Air Quality Not available.
Flu Activity Not available.
METAR KRIW 291653Z AUTO 06008KT 9SM -RA FEW020 BKN033 OVC080 16/14 A3036 RMK AO2 SLP220 P0006 T01560144

More Conditions Fewer Conditions

Pressure 30.18 in
Visibility 9.0 miles
Clouds Few 2000 ft
Mostly Cloudy 3300 ft
Overcast 8000 ft
Dew Point 58 °F
Humidity 93%
Rainfall 0.06 in
Snow Depth Not available.
UV 3 out of 12
Pollen 3.70 out of 12
Air Quality Not available.
Flu Activity Not available.
METAR KRIW 291653Z AUTO 06008KT 9SM -RA FEW020 BKN033 OVC080 16/14 A3036 RMK AO2 SLP220 P0006 T01560144

More Conditions Fewer Conditions

10-Day Weather Forecast

Almanac

Astronomy

Jul. 29, 2014 Rise Set
Actual Time 6:01 AM MDT 8:38 PM MDT
Civil Twilight 5:28 AM MDT 9:10 PM MDT
Nautical Twilight 4:47 AM MDT 9:51 PM MDT
Astronomical Twilight 4:01 AM MDT 10:37 PM MDT
Moon 8:46 AM MDT 9:46 PM MDT
Length of Visible Light 15h 42m
Length of Day
14h 37m
Tomorrow will be 2m 8s shorter.
Waxing Crescent, 7% of the Moon is Illuminated
Today
Waxing Crescent
Aug 3
First Quarter
Aug 10
Full
Aug 17
Last Quarter
Aug 25
New

Today's Extremes

State Highs State Lows

Community

WunderPhotos

Upload Photos

1,738,797 photos uploaded!

Nearby

Snow Depth

Station Depth Elevation
Big Sandy Opening 1 in 9080 ft
Gunsight Pass 1 in 9820 ft
Burroughs Creek 0 in 8750 ft
New Fork Lake 0 in 8340 ft
Kendall R.S. 1 in 7740 ft

Earthquake Activity

City Distance Mag. Time & Date
No recent earthquake activity has been reported nearby.
Minimum magnitude displayed is 2.5.

Coastal Water Temperatures

Place Temperature
No Stations Reporting

Nearby Weather Stations

Station Location Temp. Dew Point Humidity Wind Precip. Elev Updated Type
Riverton, WY 59.8 °F 57 °F 91% ENE  at  8.0 mph - / hr 5405 ft 11:08 AM MDT Normal
Logan Park, Riverton, WY 61.0 °F 59 °F 92% South  at  0.0 mph 0.24 in / hr 4984 ft 11:22 AM MDT Rapid Fire
HADS LITTLE WIND RIVER NEAR RIVERTON WY, Saint Stephens, WY 62 °F - - North  at  - 0.09 in / hr 4900 ft 10:15 AM MDT MADIS

Show More Stations Show Fewer Stations